createdAt,value
2022-12-04T00:00:21.040Z,20.20
2022-12-04T00:01:21.025Z,19.80
2022-12-04T00:02:20.967Z,19.80
2022-12-04T00:03:21.083Z,20.30
2022-12-04T00:04:20.901Z,19.80
2022-12-04T00:05:20.793Z,20.00
2022-12-04T00:06:20.743Z,20.40
2022-12-04T00:07:20.695Z,20.00
2022-12-04T00:08:20.642Z,20.00
2022-12-04T00:09:20.597Z,19.90
2022-12-04T00:10:20.564Z,20.20
2022-12-04T00:11:20.497Z,20.80
2022-12-04T00:12:20.449Z,20.70
2022-12-04T00:13:20.396Z,19.50
2022-12-04T00:14:20.349Z,19.50
2022-12-04T00:15:25.688Z,20.10
2022-12-04T00:16:20.311Z,21.20
2022-12-04T00:17:20.199Z,20.40
2022-12-04T00:18:20.148Z,20.90
2022-12-04T00:19:20.098Z,21.00
2022-12-04T00:20:20.120Z,19.80
2022-12-04T00:21:20.001Z,21.00
2022-12-04T00:22:19.950Z,21.10
2022-12-04T00:23:19.900Z,20.60
2022-12-04T00:24:19.849Z,21.20
2022-12-04T00:25:19.873Z,20.30
2022-12-04T00:26:19.776Z,20.60
2022-12-04T00:27:19.702Z,20.90
2022-12-04T00:28:19.651Z,20.30
2022-12-04T00:29:19.606Z,20.80
2022-12-04T00:30:19.553Z,20.40
2022-12-04T00:31:19.620Z,19.80
2022-12-04T00:32:19.464Z,21.40
2022-12-04T00:33:19.404Z,21.10
2022-12-04T00:34:19.356Z,20.30
2022-12-04T00:35:19.307Z,20.10
2022-12-04T00:36:19.258Z,21.30
2022-12-04T00:37:19.212Z,20.20
2022-12-04T00:38:19.157Z,20.30
2022-12-04T00:39:19.108Z,20.00
2022-12-04T00:40:19.059Z,20.30
2022-12-04T00:41:19.013Z,21.20
2022-12-04T00:42:18.979Z,19.60
2022-12-04T00:43:18.910Z,20.90
2022-12-04T00:44:18.862Z,21.10
2022-12-04T00:45:18.811Z,19.80
2022-12-04T00:46:18.847Z,21.00
2022-12-04T00:47:18.713Z,21.00
2022-12-04T00:48:18.663Z,20.50
2022-12-04T00:49:18.616Z,19.80
2022-12-04T17:25:02.599Z,11.40
2022-12-04T17:26:02.112Z,15.40
2022-12-04T17:27:02.059Z,17.00
2022-12-04T17:28:02.002Z,18.00
2022-12-04T17:29:01.961Z,18.70
2022-12-04T17:30:01.906Z,19.00
2022-12-04T17:31:01.877Z,19.60
2022-12-04T17:32:01.794Z,19.90
2022-12-04T17:33:01.740Z,20.70
2022-12-04T17:34:01.692Z,18.70
2022-12-04T17:35:01.633Z,18.70
2022-12-04T17:36:01.584Z,19.10
2022-12-04T17:37:01.537Z,21.00
2022-12-04T17:38:05.986Z,19.40
2022-12-04T17:39:01.440Z,19.60
2022-12-04T17:40:01.395Z,19.10
2022-12-04T17:41:01.360Z,18.50
2022-12-04T17:42:01.280Z,18.60
2022-12-04T17:43:01.230Z,18.80
2022-12-04T17:44:01.185Z,18.10
2022-12-04T17:45:01.132Z,18.00
2022-12-04T17:46:01.082Z,19.00
2022-12-04T17:47:01.121Z,18.80
2022-12-04T17:48:00.984Z,18.20
2022-12-04T17:49:05.461Z,17.80
2022-12-04T17:50:00.889Z,19.10
2022-12-04T17:51:00.835Z,18.50
2022-12-04T17:52:00.788Z,18.40
2022-12-04T17:53:00.741Z,18.50
2022-12-04T17:54:00.698Z,18.30
2022-12-04T17:55:00.643Z,17.80
2022-12-04T17:56:00.598Z,17.50
2022-12-04T17:57:00.566Z,19.50
2022-12-04T17:58:00.495Z,18.30
2022-12-04T17:59:00.592Z,17.70
2022-12-04T18:00:00.405Z,18.40
2022-12-04T18:01:00.387Z,18.00
2022-12-04T18:02:00.302Z,18.00
2022-12-04T18:03:00.319Z,18.80
2022-12-04T18:04:00.203Z,18.10
2022-12-04T18:05:00.158Z,18.70
2022-12-04T18:06:00.106Z,19.10
2022-12-04T18:07:00.055Z,18.30
2022-12-04T18:08:00.061Z,17.40
2022-12-04T18:08:59.959Z,17.20
2022-12-04T18:10:00.435Z,18.50
2022-12-04T18:10:59.869Z,19.00
2022-12-04T18:11:59.922Z,19.70
2022-12-04T18:13:00.041Z,18.80
2022-12-04T18:13:59.716Z,19.30
2022-12-04T18:14:59.666Z,18.70
2022-12-04T18:15:59.700Z,19.50
2022-12-04T18:16:59.649Z,20.00
2022-12-04T18:17:59.524Z,18.90
2022-12-04T18:18:59.471Z,20.20
2022-12-04T18:20:04.224Z,20.60
2022-12-04T18:20:59.377Z,21.00
2022-12-04T18:21:59.330Z,20.40
2022-12-04T18:22:59.279Z,20.40
2022-12-04T18:23:59.239Z,21.50
2022-12-04T18:24:59.181Z,21.30
2022-12-04T18:25:59.137Z,22.20
2022-12-04T18:26:59.086Z,20.60
2022-12-04T18:27:59.041Z,21.20
2022-12-04T18:28:59.011Z,23.60
2022-12-04T18:29:59.302Z,22.90
2022-12-04T18:30:58.892Z,22.30
2022-12-04T18:31:58.894Z,22.80
2022-12-04T18:32:58.797Z,22.90
2022-12-04T18:33:58.748Z,23.00
2022-12-04T18:34:58.708Z,22.70
2022-12-04T18:35:58.692Z,23.40
2022-12-04T18:36:58.676Z,23.30
2022-12-04T18:37:58.569Z,23.10
2022-12-04T18:38:58.511Z,22.90
2022-12-04T18:40:03.352Z,23.40
2022-12-04T18:40:58.413Z,22.80
2022-12-04T18:41:58.368Z,22.80
2022-12-04T18:42:58.311Z,22.50
2022-12-04T18:43:58.266Z,23.70
2022-12-04T18:44:58.240Z,23.20
2022-12-04T18:46:01.459Z,22.50
2022-12-04T18:46:58.118Z,23.30
2022-12-04T18:47:58.074Z,23.50
2022-12-04T18:48:58.029Z,23.20
2022-12-04T18:49:58.152Z,23.50
2022-12-04T18:50:57.934Z,23.50
2022-12-04T18:51:57.878Z,23.00
2022-12-04T18:53:01.048Z,23.00
2022-12-04T18:53:57.781Z,24.30
2022-12-04T18:54:57.734Z,23.10
2022-12-04T18:55:57.686Z,22.80
2022-12-04T18:56:57.654Z,23.40
2022-12-04T18:57:57.587Z,23.10
2022-12-04T18:58:57.536Z,22.50
2022-12-04T18:59:57.798Z,22.40
2022-12-04T19:00:57.524Z,23.80
2022-12-04T19:01:57.488Z,23.60
2022-12-04T19:02:57.345Z,23.50
2022-12-04T19:03:57.297Z,22.60
2022-12-04T19:04:57.246Z,23.80
2022-12-04T19:05:57.234Z,22.50
2022-12-04T19:06:57.151Z,22.40
2022-12-04T19:07:57.178Z,23.90
2022-12-04T19:08:57.054Z,23.80
2022-12-04T19:10:12.505Z,23.30
2022-12-04T19:10:56.957Z,22.60
2022-12-04T19:11:56.909Z,23.00
2022-12-04T19:12:56.861Z,23.30
2022-12-04T19:13:56.813Z,23.10
2022-12-04T19:14:56.761Z,22.40
2022-12-04T19:15:56.717Z,22.40
2022-12-04T19:16:56.748Z,21.60
2022-12-04T19:17:56.618Z,22.70
2022-12-04T19:18:56.577Z,22.00
2022-12-04T19:19:56.844Z,22.10
2022-12-04T19:20:56.472Z,22.90
2022-12-04T19:21:56.427Z,22.40
2022-12-04T19:22:56.375Z,22.90
2022-12-04T19:23:56.333Z,21.80
2022-12-04T19:24:56.276Z,22.00
2022-12-04T19:25:56.232Z,23.40
2022-12-04T19:26:56.184Z,21.90
2022-12-04T19:27:56.233Z,23.50
2022-12-04T19:28:56.089Z,21.50
2022-12-04T19:29:56.395Z,22.40
2022-12-04T19:30:55.987Z,22.30
2022-12-04T19:31:59.278Z,21.20
2022-12-04T19:32:55.914Z,22.20
2022-12-04T19:33:55.847Z,20.80
2022-12-04T19:34:55.791Z,22.50
2022-12-04T19:35:55.746Z,22.00
2022-12-04T19:36:55.695Z,21.50
2022-12-04T19:37:55.650Z,22.40
2022-12-04T19:38:55.600Z,21.70
2022-12-04T19:39:55.946Z,21.30
2022-12-04T19:40:55.503Z,22.30
2022-12-04T19:41:55.476Z,21.20
2022-12-04T19:43:01.137Z,21.70
2022-12-04T19:43:55.361Z,21.50
2022-12-04T19:44:55.310Z,21.10
2022-12-04T19:45:55.301Z,21.30
2022-12-04T19:46:55.212Z,21.50
2022-12-04T19:47:55.164Z,20.70
2022-12-04T19:48:55.140Z,22.10
2022-12-04T19:49:55.345Z,20.40
2022-12-04T19:50:55.018Z,21.70
2022-12-04T19:51:54.972Z,21.40
2022-12-04T19:52:54.921Z,22.20
2022-12-04T19:53:54.875Z,21.70
2022-12-04T19:54:54.825Z,21.60
2022-12-04T19:55:54.776Z,21.40
2022-12-04T19:56:54.729Z,22.30
2022-12-04T19:57:54.679Z,21.30
2022-12-04T19:58:54.626Z,21.10
2022-12-04T19:59:54.580Z,20.90
2022-12-04T20:00:54.593Z,21.90
2022-12-04T20:01:54.670Z,21.70
2022-12-04T20:02:54.497Z,22.10
2022-12-04T20:03:54.389Z,21.90
2022-12-04T20:04:54.360Z,20.60
2022-12-04T20:05:54.291Z,22.10
2022-12-04T20:06:54.241Z,20.90
2022-12-04T20:07:54.279Z,21.60
2022-12-04T20:08:54.144Z,22.70
2022-12-04T20:09:54.094Z,21.00
2022-12-04T20:10:54.046Z,21.60
2022-12-04T20:11:53.998Z,21.40
2022-12-04T20:12:53.949Z,21.50
2022-12-04T20:13:53.901Z,21.50
2022-12-04T20:14:53.851Z,21.20
2022-12-04T20:15:53.805Z,21.50
2022-12-04T20:16:53.792Z,21.90
2022-12-04T20:17:53.706Z,21.20
2022-12-04T20:18:53.657Z,20.90
2022-12-04T20:19:53.615Z,21.70
2022-12-04T20:20:53.583Z,21.90
2022-12-04T20:21:58.905Z,20.80
2022-12-04T20:22:53.469Z,21.00
2022-12-04T20:23:53.416Z,22.30
2022-12-04T20:24:53.366Z,20.80
2022-12-04T20:25:53.319Z,21.50
2022-12-04T20:26:53.268Z,21.50
2022-12-04T20:27:53.222Z,20.90
2022-12-04T20:28:53.172Z,20.20
2022-12-04T20:29:53.126Z,21.40
2022-12-04T20:30:53.179Z,20.80
2022-12-04T20:31:53.028Z,21.50
2022-12-04T20:32:52.977Z,21.30
2022-12-04T20:33:52.934Z,20.80
2022-12-04T20:34:52.877Z,20.80
2022-12-04T20:35:52.837Z,20.40
2022-12-04T20:36:52.810Z,21.40
2022-12-04T20:37:52.734Z,20.90
2022-12-04T20:38:52.683Z,20.80
2022-12-04T20:39:52.637Z,20.40
2022-12-04T20:40:52.587Z,21.20
2022-12-04T20:41:52.538Z,20.60
2022-12-04T20:42:52.489Z,20.50
2022-12-04T20:43:52.444Z,19.60
2022-12-04T20:44:52.392Z,19.90
2022-12-04T20:45:52.442Z,20.00
2022-12-04T20:46:52.295Z,20.40
2022-12-04T20:47:52.247Z,20.20
2022-12-04T20:48:52.200Z,20.00
2022-12-04T20:49:52.150Z,21.00
2022-12-04T20:50:52.101Z,20.80
2022-12-04T20:51:52.110Z,20.00
2022-12-04T20:52:52.032Z,20.50
2022-12-04T20:53:51.962Z,21.80
2022-12-04T20:54:51.906Z,20.20
2022-12-04T20:55:51.860Z,20.00
2022-12-04T20:56:51.810Z,19.80
2022-12-04T20:57:51.765Z,19.90
2022-12-04T20:58:51.712Z,19.40
2022-12-04T20:59:51.666Z,19.40
2022-12-04T21:00:51.615Z,19.30
2022-12-04T21:01:51.859Z,20.30
2022-12-04T21:02:51.633Z,20.20
2022-12-04T21:03:51.471Z,19.50
2022-12-04T21:04:51.419Z,19.40
2022-12-04T21:05:51.373Z,19.70
2022-12-04T21:06:51.334Z,20.20
2022-12-04T21:07:51.359Z,19.20
2022-12-04T21:09:51.200Z,19.20
2022-12-04T21:10:51.137Z,19.80
2022-12-04T21:11:51.089Z,19.90
2022-12-04T21:12:51.040Z,19.60
